createdAt,value
2022-08-17T00:02:26.049Z,19.80
2022-08-17T00:04:54.458Z,19.80
2022-08-17T00:07:21.706Z,19.80
2022-08-17T00:09:48.414Z,19.80
2022-08-17T00:12:43.395Z,19.80
2022-08-17T00:15:02.624Z,19.70
2022-08-17T00:17:29.424Z,19.70
2022-08-17T00:19:56.166Z,19.70
2022-08-17T00:22:31.087Z,19.70
2022-08-17T00:25:02.950Z,19.70
2022-08-17T00:27:29.693Z,19.70
2022-08-17T00:29:56.484Z,19.50
2022-08-17T00:33:14.034Z,19.60
2022-08-17T00:35:12.933Z,19.50
2022-08-17T00:37:40.501Z,19.60
2022-08-17T00:40:09.843Z,19.60
2022-08-17T00:42:37.072Z,19.50
2022-08-17T00:45:06.178Z,19.50
2022-08-17T00:47:32.935Z,19.50
2022-08-17T00:50:00.237Z,19.50
2022-08-17T00:52:35.678Z,19.50
2022-08-17T00:55:04.672Z,19.60
2022-08-17T00:57:35.119Z,19.60
2022-08-17T01:00:19.512Z,19.60
2022-08-17T01:02:48.017Z,19.50
2022-08-17T01:05:23.507Z,19.50
2022-08-17T01:07:53.424Z,19.40
2022-08-17T01:10:59.359Z,19.40
2022-08-17T01:13:12.648Z,19.40
2022-08-17T01:15:47.388Z,19.40
2022-08-17T01:18:14.944Z,19.40
2022-08-17T01:20:49.034Z,19.40
2022-08-17T01:23:20.504Z,19.40
2022-08-17T01:25:51.079Z,19.40
2022-08-17T01:28:52.618Z,19.40
2022-08-17T01:31:08.175Z,19.40
2022-08-17T01:33:35.636Z,19.30
2022-08-17T01:36:04.162Z,19.20
2022-08-17T01:38:31.876Z,19.10
2022-08-17T01:41:03.404Z,19.10
2022-08-17T01:43:39.491Z,19.00
2022-08-17T01:46:06.334Z,19.10
2022-08-17T01:48:35.933Z,19.10
2022-08-17T01:51:02.921Z,19.00
2022-08-17T01:53:36.346Z,18.90
2022-08-17T01:56:10.157Z,18.90
2022-08-17T01:58:38.937Z,18.90
2022-08-17T02:01:06.636Z,18.90
2022-08-17T02:03:35.245Z,18.80
2022-08-17T02:06:02.889Z,18.80
2022-08-17T02:08:39.576Z,18.80
2022-08-17T02:11:22.636Z,18.80
2022-08-17T02:13:54.999Z,18.80
2022-08-17T02:16:27.830Z,18.70
2022-08-17T02:19:10.221Z,18.80
2022-08-17T02:21:38.275Z,18.80
2022-08-17T02:24:08.191Z,18.70
2022-08-17T02:26:35.075Z,18.60
2022-08-17T02:29:01.995Z,18.50
2022-08-17T02:31:31.036Z,18.50
2022-08-17T02:34:03.695Z,18.50
2022-08-17T02:36:32.941Z,18.50
2022-08-17T02:39:01.689Z,18.60
2022-08-17T02:41:28.541Z,18.60
2022-08-17T02:43:55.266Z,18.50
2022-08-17T02:46:23.395Z,18.40
2022-08-17T02:48:50.084Z,18.40
2022-08-17T02:51:17.131Z,18.30
2022-08-17T02:53:44.170Z,18.30
2022-08-17T02:56:10.883Z,18.30
2022-08-17T02:58:37.850Z,18.30
2022-08-17T03:01:06.882Z,18.30
2022-08-17T03:03:35.707Z,18.30
2022-08-17T03:06:02.804Z,18.20
2022-08-17T03:08:29.908Z,18.30
2022-08-17T03:10:56.937Z,18.20
2022-08-17T03:13:24.128Z,18.30
2022-08-17T03:15:51.318Z,18.30
2022-08-17T03:18:25.603Z,18.30
2022-08-17T03:20:55.311Z,18.30
2022-08-17T03:23:24.224Z,18.20
2022-08-17T03:25:54.000Z,18.20
2022-08-17T03:28:22.301Z,18.10
2022-08-17T03:30:50.996Z,18.00
2022-08-17T03:33:18.678Z,18.00
2022-08-17T03:35:45.957Z,17.90
2022-08-17T03:38:15.873Z,18.00
2022-08-17T03:40:56.753Z,17.90
2022-08-17T03:43:32.159Z,17.90
2022-08-17T03:46:33.258Z,18.00
2022-08-17T03:49:21.992Z,18.00
2022-08-17T03:52:07.309Z,18.00
2022-08-17T03:54:52.880Z,18.00
2022-08-17T03:57:19.664Z,18.00
2022-08-17T03:59:46.437Z,17.90
2022-08-17T04:02:19.914Z,17.90
2022-08-17T04:04:50.666Z,17.90
2022-08-17T04:07:19.113Z,17.80
2022-08-17T04:09:45.826Z,17.80
2022-08-17T04:12:16.073Z,17.80
2022-08-17T04:14:53.482Z,17.80
2022-08-17T04:17:24.202Z,17.80
2022-08-17T04:19:51.671Z,17.80
2022-08-17T04:22:31.729Z,17.70
2022-08-17T04:25:01.361Z,17.70
2022-08-17T04:27:28.060Z,17.70
2022-08-17T04:29:56.133Z,17.80
2022-08-17T04:33:19.177Z,17.70
2022-08-17T04:35:10.059Z,17.80
2022-08-17T04:37:36.765Z,17.80
2022-08-17T04:40:22.711Z,17.90
2022-08-17T04:43:08.683Z,17.90
2022-08-17T04:45:54.984Z,18.00
2022-08-17T04:48:24.684Z,18.10
2022-08-17T04:51:03.166Z,18.10
2022-08-17T04:53:30.023Z,18.20
2022-08-17T04:55:59.015Z,18.30
2022-08-17T04:58:26.136Z,18.30
2022-08-17T05:00:53.533Z,18.40
2022-08-17T05:03:20.446Z,18.30
2022-08-17T05:05:49.487Z,18.30
2022-08-17T05:08:19.008Z,18.30
2022-08-17T05:10:46.907Z,18.40
2022-08-17T05:13:25.323Z,18.30
2022-08-17T05:15:58.154Z,18.50
2022-08-17T05:18:25.223Z,18.50
2022-08-17T05:20:52.639Z,18.50
2022-08-17T05:23:21.658Z,18.60
2022-08-17T05:25:51.545Z,18.60
2022-08-17T05:28:26.708Z,18.60
2022-08-17T05:30:56.913Z,18.70
2022-08-17T05:33:29.420Z,18.70
2022-08-17T05:35:59.136Z,18.80
2022-08-17T05:38:28.555Z,18.90
2022-08-17T05:40:55.934Z,19.00
2022-08-17T05:43:31.657Z,19.10
2022-08-17T05:46:10.722Z,19.10
2022-08-17T05:48:44.003Z,19.20
2022-08-17T05:51:41.270Z,19.30
2022-08-17T05:54:47.374Z,19.30
2022-08-17T05:57:29.325Z,19.40
2022-08-17T06:00:13.239Z,19.40
2022-08-17T06:03:15.902Z,19.40
2022-08-17T06:05:51.505Z,19.40
2022-08-17T06:08:26.826Z,19.40
2022-08-17T06:11:11.815Z,19.60
2022-08-17T06:13:53.842Z,19.70
2022-08-17T06:16:34.423Z,19.70
2022-08-17T06:19:18.764Z,19.80
2022-08-17T06:21:48.920Z,19.90
2022-08-17T06:24:30.988Z,19.90
2022-08-17T06:27:06.134Z,20.10
2022-08-17T06:29:56.758Z,20.30
2022-08-17T06:32:25.035Z,20.50
2022-08-17T06:34:52.871Z,20.60
2022-08-17T06:37:48.834Z,20.80
2022-08-17T06:40:39.962Z,21.10
2022-08-17T06:43:32.623Z,21.40
2022-08-17T06:46:06.874Z,21.80
2022-08-17T06:48:42.603Z,22.20
2022-08-17T06:51:29.744Z,22.50
2022-08-17T06:53:59.610Z,23.00
2022-08-17T06:56:53.132Z,23.30
2022-08-17T06:59:26.196Z,24.00
2022-08-17T07:01:59.671Z,23.50
2022-08-17T07:04:31.124Z,23.50
2022-08-17T07:07:21.920Z,23.70
2022-08-17T07:09:49.574Z,24.10
2022-08-17T07:12:22.095Z,24.40
2022-08-17T07:15:14.872Z,24.00
2022-08-17T07:17:47.231Z,24.30
2022-08-17T07:20:20.462Z,24.60
2022-08-17T07:23:03.239Z,24.90
2022-08-17T07:25:31.309Z,25.10
2022-08-17T07:28:02.371Z,24.90
2022-08-17T07:31:04.552Z,25.20
2022-08-17T07:33:33.727Z,25.80
2022-08-17T07:36:00.897Z,25.90
2022-08-17T07:38:33.328Z,25.60
2022-08-17T07:41:04.912Z,25.60
2022-08-17T07:43:33.886Z,25.90
2022-08-17T07:46:27.192Z,25.70
2022-08-17T07:48:57.380Z,25.20
2022-08-17T07:51:33.818Z,25.00
2022-08-17T07:54:14.040Z,25.90
2022-08-17T07:56:46.604Z,26.20
2022-08-17T07:59:16.009Z,25.60
2022-08-17T08:01:47.495Z,25.30
2022-08-17T08:04:50.022Z,25.30
2022-08-17T08:07:26.466Z,25.60
2022-08-17T08:09:59.053Z,25.90
2022-08-17T08:12:36.304Z,26.20
2022-08-17T08:15:21.824Z,26.60
2022-08-17T08:17:52.973Z,26.90
2022-08-17T08:21:08.763Z,26.60
2022-08-17T08:23:46.395Z,26.50
2022-08-17T08:26:40.733Z,26.60
2022-08-17T08:29:52.722Z,26.70
2022-08-17T08:32:33.063Z,26.60
2022-08-17T08:35:06.569Z,26.40
2022-08-17T08:37:57.869Z,26.20
2022-08-17T08:40:36.537Z,26.00
2022-08-17T08:43:31.037Z,25.90
2022-08-17T08:46:35.476Z,25.90
2022-08-17T08:49:19.208Z,25.80
2022-08-17T08:51:56.676Z,25.70
2022-08-17T08:54:40.592Z,25.80
2022-08-17T08:58:05.710Z,25.80
2022-08-17T09:00:36.199Z,25.70
2022-08-17T09:03:14.630Z,26.00
2022-08-17T09:06:02.851Z,26.20
2022-08-17T09:09:01.898Z,26.30
2022-08-17T09:12:01.157Z,26.50
2022-08-17T09:15:16.892Z,26.70
2022-08-17T09:18:59.210Z,26.80
2022-08-17T09:21:01.609Z,27.30
2022-08-17T09:23:39.263Z,27.90
2022-08-17T09:26:22.844Z,27.80
2022-08-17T09:29:01.514Z,27.90
2022-08-17T09:31:48.909Z,28.10
2022-08-17T09:34:22.130Z,28.30
2022-08-17T09:37:22.863Z,29.00
2022-08-17T09:40:09.611Z,29.00
2022-08-17T09:42:56.061Z,29.00
2022-08-17T09:46:03.986Z,29.20
2022-08-17T09:48:42.088Z,29.90
2022-08-17T09:51:18.037Z,30.00
2022-08-17T09:53:45.225Z,29.70
2022-08-17T09:56:33.728Z,29.30
2022-08-17T09:59:34.178Z,29.60
2022-08-17T10:02:32.528Z,29.80
2022-08-17T10:05:22.381Z,30.00
2022-08-17T10:08:03.687Z,29.70
2022-08-17T10:10:56.484Z,29.50
2022-08-17T10:13:53.043Z,29.50
2022-08-17T10:16:37.266Z,29.40
2022-08-17T10:19:35.226Z,29.60
2022-08-17T10:22:35.161Z,29.80
2022-08-17T10:25:33.474Z,29.80
2022-08-17T10:28:19.737Z,30.00
2022-08-17T10:31:16.614Z,30.20
2022-08-17T10:34:19.939Z,30.30
2022-08-17T10:37:06.616Z,30.50
2022-08-17T10:39:53.524Z,30.30
2022-08-17T10:42:43.608Z,30.30
2022-08-17T10:45:28.041Z,30.20
2022-08-17T10:48:04.694Z,30.40
2022-08-17T10:50:57.577Z,30.20
2022-08-17T10:53:33.493Z,30.00
2022-08-17T10:56:17.441Z,30.00
2022-08-17T10:58:58.726Z,30.00
2022-08-17T11:01:31.246Z,30.00
2022-08-17T11:04:11.705Z,30.00
2022-08-17T11:07:02.085Z,29.90
2022-08-17T11:09:34.943Z,30.10
2022-08-17T11:12:11.168Z,30.40
2022-08-17T11:14:58.063Z,30.50
2022-08-17T11:18:07.242Z,30.90
2022-08-17T11:21:02.959Z,30.80
2022-08-17T11:23:48.293Z,30.80
2022-08-17T11:26:29.627Z,30.50
2022-08-17T11:29:01.451Z,30.50
2022-08-17T11:31:38.607Z,30.40
2022-08-17T11:34:26.438Z,30.60
2022-08-17T11:36:53.269Z,30.60
2022-08-17T11:39:44.105Z,30.70
2022-08-17T11:42:23.391Z,30.50
2022-08-17T11:45:32.636Z,30.60
2022-08-17T11:48:36.341Z,30.50
2022-08-17T11:51:33.887Z,30.40
2022-08-17T11:54:31.535Z,30.30
2022-08-17T11:56:53.666Z,30.50
2022-08-17T11:59:32.810Z,30.20
2022-08-17T12:02:31.770Z,30.00
2022-08-17T12:05:14.320Z,29.90
2022-08-17T12:08:02.380Z,29.70
2022-08-17T12:10:32.527Z,29.70
2022-08-17T12:13:03.575Z,29.60
2022-08-17T12:15:32.335Z,29.60
2022-08-17T12:17:59.186Z,29.70
2022-08-17T12:20:43.991Z,29.60
2022-08-17T12:23:19.632Z,29.60
2022-08-17T12:25:56.910Z,29.60
2022-08-17T12:28:29.100Z,29.70
2022-08-17T12:31:03.697Z,30.00
2022-08-17T12:33:30.928Z,30.10
2022-08-17T12:36:03.201Z,31.10
2022-08-17T12:38:36.067Z,31.90
2022-08-17T12:41:24.012Z,32.60
2022-08-17T12:44:23.408Z,32.20
2022-08-17T12:46:52.536Z,31.50
2022-08-17T12:49:29.741Z,31.10
2022-08-17T12:52:12.515Z,30.70
2022-08-17T12:54:51.119Z,30.20
2022-08-17T12:57:31.166Z,30.10
2022-08-17T13:00:09.270Z,30.10
2022-08-17T13:02:49.817Z,29.90
2022-08-17T13:05:25.218Z,29.80
2022-08-17T13:07:53.369Z,29.90
2022-08-17T13:10:32.548Z,29.80
2022-08-17T13:13:04.485Z,29.60
2022-08-17T13:15:34.991Z,29.40
2022-08-17T13:18:07.118Z,29.50
2022-08-17T13:20:35.470Z,29.50
2022-08-17T13:23:11.444Z,29.40
2022-08-17T13:25:39.486Z,29.40
2022-08-17T13:28:06.307Z,29.30
2022-08-17T13:30:33.625Z,29.40
2022-08-17T13:33:04.658Z,29.40
2022-08-17T13:35:39.886Z,29.50
2022-08-17T13:38:49.438Z,29.50
2022-08-17T13:41:34.654Z,29.40
2022-08-17T13:44:02.002Z,29.20
2022-08-17T13:46:31.696Z,29.10
2022-08-17T13:49:11.745Z,29.20
2022-08-17T13:51:51.399Z,29.20
2022-08-17T13:54:29.539Z,29.20
2022-08-17T13:56:57.909Z,29.10
2022-08-17T13:59:52.618Z,29.10
2022-08-17T14:02:21.756Z,29.10
2022-08-17T14:04:49.048Z,29.10
2022-08-17T14:07:16.154Z,29.00
2022-08-17T14:09:49.044Z,29.10
2022-08-17T14:12:19.640Z,29.10
2022-08-17T14:14:46.484Z,29.10
2022-08-17T14:17:13.633Z,29.30
2022-08-17T14:19:40.521Z,29.10
2022-08-17T14:22:11.600Z,29.20
2022-08-17T14:24:44.641Z,29.30
2022-08-17T14:27:12.032Z,29.40
2022-08-17T14:29:41.000Z,29.30
2022-08-17T14:32:23.658Z,29.40
2022-08-17T14:34:51.627Z,29.50
2022-08-17T14:37:20.622Z,29.70
2022-08-17T14:39:47.677Z,29.80
2022-08-17T14:42:15.449Z,29.90
2022-08-17T14:44:42.160Z,30.10
2022-08-17T14:47:14.921Z,30.10
2022-08-17T14:49:42.212Z,30.50
2022-08-17T14:52:11.804Z,30.90
2022-08-17T14:54:42.504Z,30.90
2022-08-17T14:57:24.569Z,30.40
2022-08-17T15:00:00.044Z,30.00
2022-08-17T15:02:29.744Z,29.80
2022-08-17T15:05:02.626Z,30.00
2022-08-17T15:07:30.467Z,29.80
2022-08-17T15:09:58.699Z,29.80
2022-08-17T15:12:32.002Z,29.70
2022-08-17T15:15:00.664Z,29.50
2022-08-17T15:17:27.466Z,29.60
2022-08-17T15:20:15.616Z,29.90
2022-08-17T15:22:44.043Z,30.60
2022-08-17T15:25:12.135Z,30.90
2022-08-17T15:27:39.061Z,30.80
2022-08-17T15:30:07.508Z,30.90
2022-08-17T15:32:38.016Z,30.60
2022-08-17T15:35:06.542Z,30.40
2022-08-17T15:37:33.436Z,30.40
2022-08-17T15:40:03.793Z,30.50
2022-08-17T15:42:30.658Z,30.60
2022-08-17T15:44:57.692Z,31.00
2022-08-17T15:47:24.850Z,31.00
2022-08-17T15:49:55.431Z,30.30
2022-08-17T15:52:26.961Z,29.80
2022-08-17T15:54:57.015Z,29.60
2022-08-17T15:57:24.569Z,29.40
2022-08-17T15:59:58.654Z,29.70
2022-08-17T16:03:16.011Z,29.80
2022-08-17T16:05:22.047Z,30.20
2022-08-17T16:07:52.264Z,30.70
2022-08-17T16:10:19.659Z,30.90
2022-08-17T16:12:48.781Z,30.40
2022-08-17T16:15:16.867Z,30.80
2022-08-17T16:17:43.561Z,30.60
2022-08-17T16:20:20.290Z,30.10
2022-08-17T16:22:48.994Z,29.80
2022-08-17T16:25:19.994Z,29.50
2022-08-17T16:27:50.342Z,29.20
2022-08-17T16:30:18.093Z,29.00
2022-08-17T16:32:46.340Z,28.90
2022-08-17T16:35:16.984Z,28.80
2022-08-17T16:37:47.717Z,28.70
2022-08-17T16:40:16.367Z,28.50
2022-08-17T16:42:48.389Z,28.30
2022-08-17T16:45:26.484Z,28.30
2022-08-17T16:47:54.987Z,28.20
2022-08-17T16:50:23.442Z,28.10
2022-08-17T16:52:50.639Z,28.00
2022-08-17T16:55:24.354Z,28.00
2022-08-17T16:57:51.763Z,27.90
2022-08-17T17:00:21.172Z,27.90
2022-08-17T17:02:49.601Z,27.90
2022-08-17T17:05:37.555Z,27.80
2022-08-17T17:08:12.754Z,27.80
2022-08-17T17:10:55.201Z,27.70
2022-08-17T17:13:46.896Z,27.70
2022-08-17T17:16:28.521Z,27.70
2022-08-17T17:19:04.719Z,27.70
2022-08-17T17:21:42.379Z,27.70
2022-08-17T17:24:26.134Z,27.70
2022-08-17T17:27:21.165Z,27.70
2022-08-17T17:29:54.253Z,27.80
2022-08-17T17:32:38.033Z,27.80
2022-08-17T17:35:15.595Z,27.80
2022-08-17T17:37:45.021Z,27.90
2022-08-17T17:40:29.441Z,28.00
2022-08-17T17:43:14.258Z,27.80
2022-08-17T17:46:27.154Z,27.80
2022-08-17T17:48:57.472Z,27.50
2022-08-17T17:51:59.690Z,27.40
2022-08-17T17:55:06.827Z,27.30
2022-08-17T17:58:00.914Z,27.20
2022-08-17T18:01:02.242Z,27.00
2022-08-17T18:04:17.609Z,26.90
2022-08-17T18:07:12.116Z,26.80
2022-08-17T18:10:13.656Z,26.70
2022-08-17T18:13:17.956Z,26.60
2022-08-17T18:15:51.257Z,26.40
2022-08-17T18:18:18.066Z,26.40
2022-08-17T18:20:56.063Z,26.30
2022-08-17T18:23:27.993Z,26.20
2022-08-17T18:25:55.912Z,26.10
2022-08-17T18:28:22.623Z,25.90
2022-08-17T18:31:10.048Z,25.90
2022-08-17T18:33:39.834Z,25.80
2022-08-17T18:36:07.973Z,25.80
2022-08-17T18:38:36.110Z,25.70
2022-08-17T18:41:23.621Z,25.60
2022-08-17T18:44:06.197Z,25.50
2022-08-17T18:46:36.722Z,25.40
2022-08-17T18:49:24.645Z,25.40
2022-08-17T18:52:15.013Z,25.30
2022-08-17T18:55:01.916Z,25.30
2022-08-17T18:57:34.801Z,25.30
2022-08-17T19:00:09.805Z,25.20
2022-08-17T19:02:53.768Z,25.20
2022-08-17T19:05:41.946Z,25.20
2022-08-17T19:08:22.667Z,25.20
2022-08-17T19:10:54.138Z,25.20
2022-08-17T19:13:34.020Z,25.10
2022-08-17T19:16:26.463Z,25.00
2022-08-17T19:18:57.887Z,24.90
2022-08-17T19:21:37.114Z,24.90
2022-08-17T19:24:25.334Z,24.70
2022-08-17T19:27:13.311Z,24.90
2022-08-17T19:29:56.565Z,24.80
2022-08-17T19:32:27.088Z,24.70
2022-08-17T19:34:55.511Z,24.60
2022-08-17T19:37:43.575Z,24.70
2022-08-17T19:40:51.810Z,24.70
2022-08-17T19:43:47.803Z,24.60
2022-08-17T19:46:30.092Z,24.50
2022-08-17T19:49:40.849Z,24.50
2022-08-17T19:52:26.201Z,24.50
2022-08-17T19:55:08.759Z,24.50
2022-08-17T19:57:55.555Z,24.50
2022-08-17T20:00:23.825Z,24.50
2022-08-17T20:03:16.328Z,24.40
2022-08-17T20:06:12.134Z,24.40
2022-08-17T20:08:56.765Z,24.30
2022-08-17T20:11:38.328Z,24.30
2022-08-17T20:14:09.689Z,24.30
2022-08-17T20:16:36.443Z,24.30
2022-08-17T20:19:21.487Z,24.20
2022-08-17T20:21:59.578Z,24.20
2022-08-17T20:24:36.886Z,24.10
2022-08-17T20:27:12.123Z,24.10
2022-08-17T20:29:59.584Z,24.10
2022-08-17T20:32:29.537Z,24.10
2022-08-17T20:35:16.360Z,24.00
2022-08-17T20:38:29.674Z,24.00
2022-08-17T20:40:57.324Z,23.90
2022-08-17T20:43:32.764Z,23.80
2022-08-17T20:46:23.743Z,23.80
2022-08-17T20:48:55.356Z,23.70
2022-08-17T20:51:34.610Z,23.70
2022-08-17T20:54:07.515Z,23.70
2022-08-17T20:56:43.481Z,23.70
2022-08-17T20:59:24.034Z,23.60
2022-08-17T21:02:24.235Z,23.50
2022-08-17T21:09:36.394Z,23.40
2022-08-17T21:17:20.640Z,23.30
2022-08-17T21:20:08.194Z,23.20
2022-08-17T21:23:37.661Z,23.10
2022-08-17T21:27:07.958Z,23.10
2022-08-17T21:29:40.369Z,23.00
2022-08-17T21:32:08.483Z,22.90
2022-08-17T21:35:06.301Z,22.90
2022-08-17T21:37:44.134Z,22.80
2022-08-17T21:40:10.875Z,22.80
2022-08-17T21:43:16.823Z,22.80
2022-08-17T21:45:53.767Z,22.70
2022-08-17T21:48:27.396Z,22.60
2022-08-17T21:51:13.847Z,22.50
2022-08-17T21:53:48.422Z,22.50
2022-08-17T21:56:25.290Z,22.40
2022-08-17T21:59:05.265Z,22.40
2022-08-17T22:01:34.591Z,22.30
2022-08-17T22:04:09.041Z,22.30
2022-08-17T22:06:52.261Z,22.30
2022-08-17T22:09:40.416Z,22.30
2022-08-17T22:12:19.733Z,22.20
2022-08-17T22:15:05.920Z,22.20
2022-08-17T22:17:41.053Z,22.20
2022-08-17T22:20:14.400Z,22.20
2022-08-17T22:23:08.623Z,22.20
2022-08-17T22:25:40.573Z,22.10
2022-08-17T22:28:09.881Z,22.10
2022-08-17T22:31:04.334Z,22.10
2022-08-17T22:33:41.549Z,22.10
2022-08-17T22:36:22.737Z,22.00
2022-08-17T22:39:13.347Z,21.90
2022-08-17T22:41:55.705Z,22.00
2022-08-17T22:44:32.264Z,21.90
2022-08-17T22:47:23.925Z,21.90
2022-08-17T22:49:56.510Z,21.90
2022-08-17T22:52:32.437Z,21.80
2022-08-17T22:55:30.044Z,21.70
2022-08-17T22:58:15.919Z,21.70
2022-08-17T23:00:45.866Z,21.60
2022-08-17T23:03:17.882Z,21.60
2022-08-17T23:05:49.465Z,21.60
2022-08-17T23:08:21.023Z,21.50
2022-08-17T23:10:48.341Z,21.50
2022-08-17T23:13:15.170Z,21.60
2022-08-17T23:15:43.007Z,21.50
2022-08-17T23:18:09.865Z,21.50
2022-08-17T23:20:39.091Z,21.40
2022-08-17T23:23:08.902Z,21.40
2022-08-17T23:25:36.334Z,21.40
2022-08-17T23:28:07.006Z,21.40
2022-08-17T23:30:40.787Z,21.30
2022-08-17T23:33:14.534Z,21.40
2022-08-17T23:35:41.502Z,21.30
2022-08-17T23:38:10.646Z,21.30
2022-08-17T23:40:39.608Z,21.20
2022-08-17T23:43:24.308Z,21.20
2022-08-17T23:45:54.322Z,21.10
2022-08-17T23:48:35.877Z,21.10
2022-08-17T23:51:27.666Z,21.00
2022-08-17T23:54:07.167Z,21.00
2022-08-17T23:56:37.671Z,20.90
2022-08-17T23:59:04.991Z,20.80
